createdAt,value
2022-11-27T00:00:39.519Z,1017.65
2022-11-27T00:01:39.526Z,1017.65
2022-11-27T00:02:40.883Z,1017.65
2022-11-27T00:03:39.586Z,1017.66
2022-11-27T00:04:39.478Z,1017.65
2022-11-27T00:05:39.493Z,1017.63
2022-11-27T00:06:39.448Z,1017.61
2022-11-27T00:07:39.537Z,1017.58
2022-11-27T00:08:39.444Z,1017.55
2022-11-27T00:09:39.751Z,1017.56
2022-11-27T00:10:39.416Z,1017.56
2022-11-27T00:11:39.420Z,1017.53
2022-11-27T00:12:39.392Z,1017.50
2022-11-27T00:13:39.392Z,1017.47
2022-11-27T00:14:39.368Z,1017.42
2022-11-27T00:15:39.413Z,1017.40
2022-11-27T00:16:39.363Z,1017.38
2022-11-27T00:17:39.347Z,1017.37
2022-11-27T00:18:39.324Z,1017.36
2022-11-27T00:19:39.536Z,1017.34
2022-11-27T00:20:39.304Z,1017.31
2022-11-27T00:21:39.319Z,1017.27
2022-11-27T00:22:39.298Z,1017.25
2022-11-27T00:23:39.281Z,1017.23
2022-11-27T00:24:39.541Z,1017.23
2022-11-27T00:25:39.266Z,1017.23
2022-11-27T00:26:39.245Z,1017.22
2022-11-27T00:27:39.291Z,1017.22
2022-11-27T00:28:39.235Z,1017.22
2022-11-27T00:29:39.213Z,1017.22
2022-11-27T00:30:39.228Z,1017.22
2022-11-27T00:31:39.277Z,1017.22
2022-11-27T00:32:39.181Z,1017.22
2022-11-27T00:33:39.369Z,1017.22
2022-11-27T00:34:39.386Z,1017.22
2022-11-27T00:35:39.161Z,1017.20
2022-11-27T00:36:39.814Z,1017.18
2022-11-27T00:37:39.153Z,1017.14
2022-11-27T00:38:39.405Z,1017.12
2022-11-27T00:39:39.125Z,1017.10
2022-11-27T00:40:39.106Z,1017.08
2022-11-27T00:41:39.093Z,1017.06
2022-11-27T00:42:39.066Z,1017.07
2022-11-27T00:43:44.612Z,1017.06
2022-11-27T00:44:39.297Z,1017.06
2022-11-27T00:45:39.108Z,1017.05
2022-11-27T00:46:39.047Z,1017.05
2022-11-27T00:47:39.020Z,1017.04
2022-11-27T00:48:39.018Z,1017.03
2022-11-27T00:49:39.025Z,1017.02
2022-11-27T00:50:38.984Z,1017.00
2022-11-27T00:51:38.987Z,1016.99
2022-11-27T00:52:38.951Z,1016.99
2022-11-27T00:53:38.971Z,1016.97
2022-11-27T00:54:39.258Z,1016.97
2022-11-27T00:55:38.958Z,1016.97
2022-11-27T00:56:38.922Z,1016.98
2022-11-27T00:57:38.932Z,1017.00
2022-11-27T00:58:38.893Z,1017.00
2022-11-27T00:59:38.906Z,1017.00
2022-11-27T01:00:38.869Z,1016.99
2022-11-27T01:01:38.950Z,1016.99
2022-11-27T01:02:38.952Z,1016.98
2022-11-27T01:03:38.881Z,1016.97
2022-11-27T01:04:39.148Z,1016.95
2022-11-27T01:05:38.835Z,1016.94
2022-11-27T01:06:38.802Z,1016.93
2022-11-27T01:07:38.882Z,1016.92
2022-11-27T01:08:38.788Z,1016.91
2022-11-27T01:09:38.826Z,1016.90
2022-11-27T01:10:38.766Z,1016.90
2022-11-27T01:11:38.771Z,1016.89
2022-11-27T01:12:38.743Z,1016.89
2022-11-27T01:13:38.748Z,1016.89
2022-11-27T01:14:39.051Z,1016.87
2022-11-27T01:15:38.762Z,1016.86
2022-11-27T01:16:42.913Z,1016.85
2022-11-27T01:17:38.700Z,1016.86
2022-11-27T01:18:38.692Z,1016.84
2022-11-27T01:19:38.695Z,1016.83
2022-11-27T01:20:38.694Z,1016.82
2022-11-27T01:21:38.730Z,1016.80
2022-11-27T01:22:38.635Z,1016.79
2022-11-27T01:23:38.656Z,1016.77
2022-11-27T01:24:38.965Z,1016.75
2022-11-27T01:25:38.645Z,1016.73
2022-11-27T01:26:38.614Z,1016.72
2022-11-27T01:27:38.621Z,1016.72
2022-11-27T01:28:38.567Z,1016.71
2022-11-27T01:29:38.578Z,1016.69
2022-11-27T01:30:38.548Z,1016.67
2022-11-27T01:31:38.697Z,1016.66
2022-11-27T01:32:38.524Z,1016.65
2022-11-27T01:33:38.547Z,1016.65
2022-11-27T01:34:38.989Z,1016.62
2022-11-27T01:35:38.542Z,1016.62
2022-11-27T01:36:38.488Z,1016.62
2022-11-27T01:37:38.511Z,1016.62
2022-11-27T01:38:38.462Z,1016.62
2022-11-27T01:39:38.466Z,1016.63
2022-11-27T01:40:38.449Z,1016.63
2022-11-27T01:41:38.437Z,1016.65
2022-11-27T01:42:38.412Z,1016.64
2022-11-27T01:43:38.451Z,1016.64
2022-11-27T01:44:38.649Z,1016.62
2022-11-27T01:45:38.417Z,1016.61
2022-11-27T01:46:38.512Z,1016.62
2022-11-27T01:47:38.378Z,1016.61
2022-11-27T01:48:38.354Z,1016.60
2022-11-27T01:49:38.380Z,1016.61
2022-11-27T01:50:38.361Z,1016.60
2022-11-27T01:51:38.344Z,1016.60
2022-11-27T01:52:38.335Z,1016.60
2022-11-27T01:53:38.378Z,1016.59
2022-11-27T01:54:38.738Z,1016.58
2022-11-27T01:55:38.296Z,1016.58
2022-11-27T01:56:38.262Z,1016.58
2022-11-27T01:57:38.303Z,1016.59
2022-11-27T01:58:38.264Z,1016.60
2022-11-27T01:59:38.259Z,1016.61
2022-11-27T02:00:38.220Z,1016.61
2022-11-27T02:01:38.282Z,1016.61
2022-11-27T02:02:38.259Z,1016.62
2022-11-27T02:03:38.213Z,1016.63
2022-11-27T02:04:38.769Z,1016.64
2022-11-27T02:05:38.185Z,1016.67
2022-11-27T02:06:38.175Z,1016.68
2022-11-27T02:07:38.279Z,1016.70
2022-11-27T02:08:38.142Z,1016.69
2022-11-27T02:09:38.148Z,1016.69
2022-11-27T06:02:29.202Z,1015.19
2022-11-27T06:03:25.616Z,1015.16
2022-11-27T06:04:25.441Z,1015.15
2022-11-27T06:05:25.416Z,1015.14
2022-11-27T06:06:25.436Z,1015.13
2022-11-27T06:07:25.468Z,1015.11
2022-11-27T06:08:25.394Z,1015.08
2022-11-27T06:09:25.383Z,1015.03
2022-11-27T06:10:25.383Z,1014.98
2022-11-27T06:11:25.356Z,1014.94
2022-11-27T06:12:25.381Z,1014.91
2022-11-27T06:13:25.340Z,1014.90
2022-11-27T06:14:25.340Z,1014.90
2022-11-27T06:15:25.305Z,1014.89
2022-11-27T06:16:25.369Z,1014.88
2022-11-27T06:17:25.295Z,1014.90
2022-11-27T06:18:25.315Z,1014.94
2022-11-27T06:19:25.281Z,1014.97
2022-11-27T06:20:25.284Z,1014.99
2022-11-27T06:21:25.248Z,1015.01
2022-11-27T06:22:25.255Z,1015.02
2022-11-27T06:23:25.256Z,1015.01
2022-11-27T06:24:25.241Z,1015.00
2022-11-27T06:25:25.160Z,1014.98
2022-11-27T06:26:25.212Z,1014.96
2022-11-27T06:27:25.176Z,1014.94
2022-11-27T06:28:25.135Z,1014.92
2022-11-27T06:29:25.125Z,1014.89
2022-11-27T06:30:25.183Z,1014.84
2022-11-27T06:31:25.254Z,1014.80
2022-11-27T06:32:25.129Z,1014.77
2022-11-27T06:33:25.064Z,1014.75
2022-11-27T06:34:25.074Z,1014.76
2022-11-27T06:35:25.068Z,1014.80
2022-11-27T06:36:25.055Z,1014.85
2022-11-27T06:37:25.036Z,1014.88
2022-11-27T06:38:25.029Z,1014.91
2022-11-27T06:39:25.011Z,1014.91
2022-11-27T06:40:25.009Z,1014.90
2022-11-27T06:41:24.995Z,1014.88
2022-11-27T06:42:25.195Z,1014.85
2022-11-27T06:43:24.982Z,1014.81
2022-11-27T06:44:24.981Z,1014.80
2022-11-27T06:45:24.991Z,1014.78
2022-11-27T06:46:24.944Z,1014.77
2022-11-27T06:47:24.920Z,1014.76
2022-11-27T06:48:24.932Z,1014.75
2022-11-27T06:49:27.754Z,1014.75
2022-11-27T06:50:24.902Z,1014.74
2022-11-27T06:51:24.870Z,1014.76
2022-11-27T06:52:24.889Z,1014.78
2022-11-27T06:53:24.859Z,1014.79
2022-11-27T06:54:24.889Z,1014.80
2022-11-27T06:55:24.840Z,1014.80
2022-11-27T06:56:24.844Z,1014.79
2022-11-27T06:57:24.852Z,1014.78
2022-11-27T06:58:30.682Z,1014.77
2022-11-27T06:59:24.800Z,1014.77
2022-11-27T07:00:24.820Z,1014.78
2022-11-27T07:01:24.835Z,1014.78
2022-11-27T07:02:24.871Z,1014.76
2022-11-27T07:03:24.757Z,1014.76
2022-11-27T07:04:24.762Z,1014.74
2022-11-27T07:05:24.738Z,1014.72
2022-11-27T07:06:24.774Z,1014.71
2022-11-27T07:07:24.777Z,1014.70
2022-11-27T07:08:24.719Z,1014.68
2022-11-27T07:09:24.690Z,1014.67
2022-11-27T07:10:24.690Z,1014.67
2022-11-27T07:11:24.680Z,1014.67
2022-11-27T07:12:24.718Z,1014.69
2022-11-27T07:13:24.649Z,1014.70
2022-11-27T07:14:24.657Z,1014.69
2022-11-27T07:15:24.623Z,1014.67
2022-11-27T07:16:24.699Z,1014.65
2022-11-27T07:17:24.620Z,1014.65
2022-11-27T07:18:24.623Z,1014.64
2022-11-27T07:19:24.576Z,1014.63
2022-11-27T07:20:24.591Z,1014.61
2022-11-27T07:21:24.561Z,1014.60
2022-11-27T07:22:24.576Z,1014.58
2022-11-27T07:23:24.554Z,1014.57
2022-11-27T07:24:24.536Z,1014.55
2022-11-27T07:25:24.533Z,1014.52
2022-11-27T07:26:24.541Z,1014.49
2022-11-27T07:27:24.499Z,1014.46
2022-11-27T07:28:24.530Z,1014.44
2022-11-27T07:29:24.495Z,1014.41
2022-11-27T07:30:24.486Z,1014.39
2022-11-27T07:31:24.485Z,1014.37
2022-11-27T07:32:24.476Z,1014.37
2022-11-27T07:33:24.428Z,1014.39
2022-11-27T07:34:24.463Z,1014.42
2022-11-27T07:35:24.415Z,1014.47
2022-11-27T07:36:24.415Z,1014.52
2022-11-27T07:37:24.400Z,1014.56
2022-11-27T07:38:24.412Z,1014.61
2022-11-27T07:39:39.704Z,1014.66
2022-11-27T07:40:24.398Z,1014.71
2022-11-27T07:41:26.048Z,1014.75
2022-11-27T07:42:38.098Z,1014.79
2022-11-27T07:43:24.358Z,1014.80
2022-11-27T07:44:24.345Z,1014.79
2022-11-27T07:45:24.346Z,1014.78
2022-11-27T07:46:24.325Z,1014.76
2022-11-27T07:47:24.285Z,1014.74
2022-11-27T07:48:24.288Z,1014.73
2022-11-27T07:49:24.265Z,1014.73
2022-11-27T07:50:24.277Z,1014.73
2022-11-27T07:51:24.252Z,1014.74
2022-11-27T07:52:24.280Z,1014.74
2022-11-27T07:53:24.236Z,1014.74
2022-11-27T07:54:24.248Z,1014.75
2022-11-27T07:55:24.195Z,1014.76
2022-11-27T07:56:24.197Z,1014.76
2022-11-27T07:57:24.172Z,1014.76
2022-11-27T07:58:24.224Z,1014.74
2022-11-27T07:59:24.153Z,1014.71
2022-11-27T08:00:24.172Z,1014.70
2022-11-27T08:01:24.246Z,1014.69
2022-11-27T08:02:24.135Z,1014.69
2022-11-27T08:03:24.130Z,1014.68
2022-11-27T08:04:24.180Z,1014.68
2022-11-27T08:05:24.113Z,1014.67
2022-11-27T08:06:24.101Z,1014.65
2022-11-27T08:07:24.115Z,1014.61
2022-11-27T08:08:24.077Z,1014.56
2022-11-27T08:09:24.071Z,1014.51
2022-11-27T08:10:24.057Z,1014.45
2022-11-27T08:11:24.033Z,1014.41
2022-11-27T08:12:24.028Z,1014.37
2022-11-27T08:13:24.012Z,1014.35
2022-11-27T08:14:24.027Z,1014.33
2022-11-27T08:15:24.013Z,1014.31
2022-11-27T08:16:24.074Z,1014.28
2022-11-27T08:17:23.958Z,1014.25
2022-11-27T08:18:23.988Z,1014.23
2022-11-27T08:19:23.950Z,1014.26
2022-11-27T08:20:23.969Z,1014.27
2022-11-27T08:21:23.974Z,1014.31
2022-11-27T08:22:23.948Z,1014.33
2022-11-27T08:23:23.921Z,1014.34
2022-11-27T08:24:23.908Z,1014.34
2022-11-27T08:25:23.879Z,1014.36
2022-11-27T08:26:23.946Z,1014.37
2022-11-27T08:27:23.878Z,1014.35
2022-11-27T08:28:23.867Z,1014.33
2022-11-27T08:29:23.850Z,1014.32
2022-11-27T08:30:23.921Z,1014.31
2022-11-27T08:31:23.859Z,1014.31
2022-11-27T08:32:23.842Z,1014.30
2022-11-27T08:33:23.801Z,1014.29
2022-11-27T08:34:23.812Z,1014.27
2022-11-27T08:35:23.771Z,1014.27
2022-11-27T08:36:23.774Z,1014.25
2022-11-27T08:37:23.782Z,1014.26
2022-11-27T08:38:23.791Z,1014.26
2022-11-27T08:39:23.740Z,1014.26
2022-11-27T08:40:23.749Z,1014.28
2022-11-27T08:41:23.709Z,1014.29
2022-11-27T08:42:23.754Z,1014.31
2022-11-27T08:43:23.678Z,1014.31
2022-11-27T08:44:23.692Z,1014.32
2022-11-27T08:45:23.685Z,1014.33
2022-11-27T08:46:23.661Z,1014.34
2022-11-27T08:47:23.645Z,1014.33
2022-11-27T08:48:23.661Z,1014.31
2022-11-27T08:49:23.615Z,1014.27
2022-11-27T08:50:23.657Z,1014.24
2022-11-27T08:51:23.595Z,1014.20
2022-11-27T08:52:23.608Z,1014.17
2022-11-27T08:53:23.595Z,1014.15
2022-11-27T08:54:23.592Z,1014.14
2022-11-27T08:55:23.579Z,1014.14
2022-11-27T08:56:23.559Z,1014.14
2022-11-27T08:57:23.549Z,1014.14
2022-11-27T08:58:23.547Z,1014.16
2022-11-27T08:59:23.522Z,1014.19
2022-11-27T09:00:27.707Z,1014.22
2022-11-27T09:01:23.554Z,1014.24
2022-11-27T09:02:23.480Z,1014.27
2022-11-27T09:03:23.485Z,1014.27
2022-11-27T09:04:23.522Z,1014.24
2022-11-27T09:05:23.482Z,1014.18
2022-11-27T09:06:23.441Z,1014.12
2022-11-27T09:07:23.548Z,1014.07
2022-11-27T09:08:23.423Z,1014.04
2022-11-27T09:09:23.410Z,1014.04
2022-11-27T09:10:23.445Z,1014.06
2022-11-27T09:11:23.417Z,1014.07
2022-11-27T09:12:23.377Z,1014.08
2022-11-27T09:13:23.375Z,1014.09
2022-11-27T09:14:23.420Z,1014.09
2022-11-27T09:15:23.374Z,1014.08
2022-11-27T09:16:23.393Z,1014.07
2022-11-27T09:17:23.322Z,1014.07
2022-11-27T09:18:23.312Z,1014.06
2022-11-27T09:19:23.333Z,1014.05
2022-11-27T09:20:23.386Z,1014.05
2022-11-27T09:21:23.303Z,1014.05
2022-11-27T09:22:23.306Z,1014.05
2022-11-27T09:23:23.273Z,1014.04
2022-11-27T09:24:23.264Z,1014.04
2022-11-27T09:25:23.265Z,1014.04
2022-11-27T09:26:23.247Z,1014.04
2022-11-27T09:27:23.241Z,1014.04
2022-11-27T09:28:28.126Z,1014.02
2022-11-27T09:29:23.241Z,1013.99
2022-11-27T09:30:23.305Z,1013.96
2022-11-27T09:31:23.246Z,1013.95
2022-11-27T09:32:23.261Z,1013.95
2022-11-27T09:33:23.199Z,1013.96
2022-11-27T09:34:23.150Z,1013.96
2022-11-27T09:35:23.214Z,1013.95
2022-11-27T09:36:23.123Z,1013.94
2022-11-27T09:37:23.118Z,1013.92
2022-11-27T09:38:23.086Z,1013.90
2022-11-27T09:39:23.087Z,1013.88
2022-11-27T09:40:23.080Z,1013.88
2022-11-27T09:41:23.101Z,1013.88
2022-11-27T09:42:23.053Z,1013.89
2022-11-27T09:43:23.045Z,1013.89
2022-11-27T09:44:23.019Z,1013.89
2022-11-27T09:45:23.034Z,1013.89
2022-11-27T09:46:23.077Z,1013.88
2022-11-27T09:47:23.031Z,1013.87
2022-11-27T09:48:22.977Z,1013.85
2022-11-27T09:49:22.997Z,1013.83
2022-11-27T09:50:22.985Z,1013.80
2022-11-27T09:51:22.989Z,1013.77
2022-11-27T09:52:22.948Z,1013.76
2022-11-27T09:53:22.957Z,1013.75
2022-11-27T09:54:22.915Z,1013.74
2022-11-27T09:55:22.927Z,1013.71
2022-11-27T09:56:22.912Z,1013.66
2022-11-27T09:57:22.983Z,1013.62
2022-11-27T09:58:22.935Z,1013.60
2022-11-27T09:59:22.877Z,1013.58
2022-11-27T10:00:22.851Z,1013.57
2022-11-27T10:01:26.100Z,1013.56
2022-11-27T10:02:23.051Z,1013.54
2022-11-27T10:03:22.940Z,1013.51
2022-11-27T10:04:22.817Z,1013.48
2022-11-27T10:05:23.025Z,1013.45
2022-11-27T10:06:22.822Z,1013.42
2022-11-27T10:07:22.883Z,1013.38
2022-11-27T10:08:22.776Z,1013.34
2022-11-27T10:09:22.764Z,1013.31
2022-11-27T10:10:22.748Z,1013.29
2022-11-27T10:11:22.743Z,1013.28
2022-11-27T10:12:22.782Z,1013.27
2022-11-27T10:13:22.721Z,1013.25
2022-11-27T10:14:22.703Z,1013.24
2022-11-27T10:15:22.698Z,1013.23
2022-11-27T10:16:22.744Z,1013.23
2022-11-27T10:17:22.718Z,1013.21
2022-11-27T10:18:22.652Z,1013.22
2022-11-27T10:19:22.664Z,1013.22
2022-11-27T10:20:22.638Z,1013.22
2022-11-27T10:21:22.634Z,1013.22
2022-11-27T10:22:22.626Z,1013.18
2022-11-27T10:23:22.625Z,1013.14
2022-11-27T10:24:22.595Z,1013.11
2022-11-27T10:25:22.621Z,1013.10
2022-11-27T10:26:22.614Z,1013.08
2022-11-27T10:27:22.588Z,1013.08
2022-11-27T10:28:22.594Z,1013.08
2022-11-27T10:29:22.657Z,1013.06
2022-11-27T10:30:22.546Z,1013.04
2022-11-27T10:31:22.615Z,1013.01
2022-11-27T10:32:53.449Z,1012.98
2022-11-27T10:33:22.518Z,1012.97
2022-11-27T10:34:22.493Z,1012.96
2022-11-27T10:35:22.500Z,1012.94
2022-11-27T10:36:22.465Z,1012.93
2022-11-27T10:37:22.508Z,1012.92
2022-11-27T10:38:22.474Z,1012.91
2022-11-27T10:39:22.450Z,1012.90
2022-11-27T10:40:22.421Z,1012.89
2022-11-27T10:41:49.439Z,1012.87
2022-11-27T10:42:22.418Z,1012.86
2022-11-27T10:43:22.419Z,1012.85
2022-11-27T10:44:22.401Z,1012.82
2022-11-27T10:45:22.373Z,1012.79
2022-11-27T10:46:22.417Z,1012.76
2022-11-27T10:47:22.377Z,1012.73
2022-11-27T10:48:22.358Z,1012.71
2022-11-27T10:49:22.366Z,1012.70
2022-11-27T10:50:22.314Z,1012.68
2022-11-27T10:51:22.321Z,1012.66
2022-11-27T10:52:22.306Z,1012.65
2022-11-27T10:53:22.309Z,1012.64
2022-11-27T10:54:22.313Z,1012.64
2022-11-27T10:55:22.285Z,1012.64
2022-11-27T10:56:22.244Z,1012.65
2022-11-27T10:57:22.257Z,1012.62
2022-11-27T10:58:22.239Z,1012.60
2022-11-27T10:59:22.247Z,1012.57
2022-11-27T11:00:22.226Z,1012.54
2022-11-27T11:01:22.247Z,1012.52
2022-11-27T11:02:22.252Z,1012.50
2022-11-27T11:03:22.182Z,1012.48
2022-11-27T11:04:37.388Z,1012.47
2022-11-27T11:06:23.384Z,1012.44
2022-11-27T11:07:22.183Z,1012.43
2022-11-27T11:08:22.135Z,1012.43
2022-11-27T11:09:22.126Z,1012.44
2022-11-27T11:10:22.105Z,1012.44
2022-11-27T11:11:22.110Z,1012.44
2022-11-27T11:12:22.097Z,1012.42
2022-11-27T11:13:22.091Z,1012.40
2022-11-27T11:14:22.066Z,1012.37
2022-11-27T11:15:22.071Z,1012.34
2022-11-27T11:16:24.568Z,1012.31
2022-11-27T11:17:22.089Z,1012.28
2022-11-27T11:18:22.067Z,1012.26
2022-11-27T11:19:22.042Z,1012.23
2022-11-27T11:20:22.021Z,1012.20
2022-11-27T11:21:21.992Z,1012.18
2022-11-27T11:22:21.974Z,1012.15
2022-11-27T11:23:21.973Z,1012.11
2022-11-27T11:24:21.968Z,1012.08
2022-11-27T11:25:21.968Z,1012.02
2022-11-27T11:26:21.924Z,1011.97
2022-11-27T11:27:21.930Z,1011.89
2022-11-27T11:28:21.908Z,1011.84
2022-11-27T11:29:21.933Z,1011.79
2022-11-27T11:30:21.920Z,1011.77
2022-11-27T11:31:21.947Z,1011.78
2022-11-27T11:32:21.860Z,1011.75
2022-11-27T11:33:21.894Z,1011.74
2022-11-27T11:34:21.837Z,1011.71
2022-11-27T11:35:21.838Z,1011.69
2022-11-27T11:36:21.814Z,1011.67
2022-11-27T11:37:21.821Z,1011.66
2022-11-27T11:38:21.796Z,1011.67
2022-11-27T11:39:21.862Z,1011.66
2022-11-27T11:40:21.778Z,1011.64
2022-11-27T11:41:21.784Z,1011.63
2022-11-27T11:42:21.757Z,1011.63
2022-11-27T11:43:21.796Z,1011.65
2022-11-27T11:44:21.759Z,1011.64
2022-11-27T11:45:21.746Z,1011.61
2022-11-27T11:46:21.780Z,1011.60
2022-11-27T11:47:21.815Z,1011.59
2022-11-27T11:48:21.702Z,1011.58
2022-11-27T11:49:21.800Z,1011.57
2022-11-27T11:50:21.691Z,1011.57
2022-11-27T11:51:26.362Z,1011.56
2022-11-27T11:52:21.652Z,1011.55
2022-11-27T11:53:21.653Z,1011.52
2022-11-27T11:54:21.625Z,1011.50
2022-11-27T11:55:21.642Z,1011.47
2022-11-27T11:56:21.625Z,1011.43
2022-11-27T11:57:21.614Z,1011.39
2022-11-27T11:58:21.600Z,1011.39
2022-11-27T11:59:21.592Z,1011.36
2022-11-27T12:00:25.216Z,1011.36
2022-11-27T12:01:28.867Z,1011.34
2022-11-27T12:02:21.592Z,1011.36
2022-11-27T12:03:21.584Z,1011.38
2022-11-27T12:04:21.615Z,1011.37
2022-11-27T12:05:21.526Z,1011.38
2022-11-27T12:06:21.497Z,1011.40
2022-11-27T12:07:21.557Z,1011.43
2022-11-27T12:08:21.494Z,1011.46
2022-11-27T12:09:21.512Z,1011.49
2022-11-27T12:10:21.467Z,1011.48
2022-11-27T12:11:21.457Z,1011.45
2022-11-27T12:12:21.440Z,1011.44
2022-11-27T12:13:21.456Z,1011.43
2022-11-27T12:14:21.414Z,1011.43
2022-11-27T12:15:21.455Z,1011.44
2022-11-27T12:16:21.455Z,1011.43
2022-11-27T12:17:21.402Z,1011.42
2022-11-27T12:18:21.365Z,1011.41
2022-11-27T12:19:21.376Z,1011.40
2022-11-27T12:20:21.351Z,1011.37
2022-11-27T12:21:21.346Z,1011.36
2022-11-27T12:22:21.349Z,1011.33
2022-11-27T12:23:21.340Z,1011.30
2022-11-27T12:24:21.342Z,1011.27
2022-11-27T12:25:21.314Z,1011.26
2022-11-27T12:26:21.285Z,1011.25
2022-11-27T12:27:21.341Z,1011.25
2022-11-27T12:28:21.260Z,1011.24
2022-11-27T12:29:21.278Z,1011.23
2022-11-27T12:30:21.268Z,1011.21
2022-11-27T12:31:21.299Z,1011.19
2022-11-27T12:32:21.240Z,1011.16
2022-11-27T12:33:21.214Z,1011.12
2022-11-27T12:34:21.191Z,1011.09
2022-11-27T12:35:21.220Z,1011.06
2022-11-27T12:36:21.171Z,1011.05
2022-11-27T12:37:21.173Z,1011.03
2022-11-27T12:38:21.169Z,1011.01
2022-11-27T12:39:21.157Z,1010.99
2022-11-27T12:40:21.130Z,1010.98
2022-11-27T12:41:21.255Z,1010.97
2022-11-27T12:42:22.252Z,1010.96
2022-11-27T12:43:21.132Z,1010.96
2022-11-27T12:44:21.110Z,1010.96
2022-11-27T12:45:21.089Z,1010.96
2022-11-27T12:46:21.139Z,1010.95
2022-11-27T12:47:21.076Z,1010.95
2022-11-27T12:48:21.037Z,1010.96
2022-11-27T12:49:21.044Z,1010.96
2022-11-27T12:50:21.036Z,1010.94
2022-11-27T12:51:21.040Z,1010.92
2022-11-27T12:52:20.999Z,1010.90
2022-11-27T12:53:24.821Z,1010.86
2022-11-27T12:54:21.018Z,1010.83
2022-11-27T12:55:21.000Z,1010.80
2022-11-27T12:56:20.994Z,1010.76
2022-11-27T12:57:20.967Z,1010.74
2022-11-27T12:58:20.988Z,1010.71
2022-11-27T12:59:20.970Z,1010.66
2022-11-27T13:00:20.916Z,1010.62
2022-11-27T13:01:26.230Z,1010.60
2022-11-27T13:02:20.983Z,1010.59
2022-11-27T13:03:20.909Z,1010.58
2022-11-27T13:04:20.882Z,1010.55
2022-11-27T13:05:20.867Z,1010.53
2022-11-27T13:06:20.855Z,1010.51
2022-11-27T13:07:20.885Z,1010.50
2022-11-27T13:08:20.860Z,1010.51
2022-11-27T13:09:20.813Z,1010.52
2022-11-27T13:10:20.839Z,1010.51
2022-11-27T13:11:20.786Z,1010.48
2022-11-27T13:12:21.153Z,1010.48
2022-11-27T13:13:20.870Z,1010.45
2022-11-27T13:14:20.812Z,1010.41
2022-11-27T13:15:20.769Z,1010.38
2022-11-27T13:16:20.846Z,1010.38
2022-11-27T13:17:20.748Z,1010.37
2022-11-27T13:18:20.725Z,1010.36
2022-11-27T13:19:20.714Z,1010.34
2022-11-27T13:20:20.717Z,1010.32
2022-11-27T13:21:20.686Z,1010.30
2022-11-27T13:22:20.699Z,1010.31
2022-11-27T13:23:20.664Z,1010.33
2022-11-27T13:24:20.700Z,1010.33
2022-11-27T13:25:20.655Z,1010.33
2022-11-27T13:26:25.955Z,1010.31
2022-11-27T13:27:20.652Z,1010.29
2022-11-27T13:28:20.646Z,1010.28
2022-11-27T13:29:20.593Z,1010.27
2022-11-27T13:30:20.617Z,1010.27
2022-11-27T13:31:20.626Z,1010.26
2022-11-27T13:32:20.588Z,1010.26
2022-11-27T13:33:20.548Z,1010.25
2022-11-27T13:34:20.577Z,1010.25
2022-11-27T13:35:20.570Z,1010.24
2022-11-27T13:36:20.534Z,1010.24
2022-11-27T13:37:20.526Z,1010.27
2022-11-27T13:38:20.545Z,1010.27
2022-11-27T13:39:20.527Z,1010.26
2022-11-27T13:40:20.493Z,1010.23
2022-11-27T13:41:20.471Z,1010.19
2022-11-27T13:42:20.478Z,1010.15
2022-11-27T13:43:20.455Z,1010.11
2022-11-27T13:44:20.469Z,1010.08
2022-11-27T13:45:20.464Z,1010.05
2022-11-27T13:46:20.550Z,1010.03
2022-11-27T13:47:20.407Z,1010.02
2022-11-27T13:48:20.403Z,1010.00
2022-11-27T13:49:20.496Z,1010.00
2022-11-27T13:50:20.384Z,1009.99
2022-11-27T13:51:20.399Z,1009.99
2022-11-27T13:52:20.357Z,1009.99
2022-11-27T13:53:20.356Z,1009.98
2022-11-27T13:54:23.395Z,1009.95
2022-11-27T13:55:20.320Z,1009.93
2022-11-27T13:56:20.327Z,1009.92
2022-11-27T13:57:20.289Z,1009.91
2022-11-27T13:58:20.326Z,1009.89
2022-11-27T13:59:20.284Z,1009.89
2022-11-27T14:00:20.281Z,1009.87
2022-11-27T14:01:20.348Z,1009.84
2022-11-27T14:02:20.322Z,1009.84
2022-11-27T14:03:20.236Z,1009.81
2022-11-27T14:04:20.248Z,1009.79
2022-11-27T14:05:20.204Z,1009.79
2022-11-27T14:06:20.211Z,1009.78
2022-11-27T14:07:20.235Z,1009.76
2022-11-27T14:08:20.189Z,1009.75
2022-11-27T14:09:20.166Z,1009.73
2022-11-27T14:10:20.280Z,1009.71
2022-11-27T14:11:20.146Z,1009.67
2022-11-27T14:12:20.154Z,1009.68
2022-11-27T14:13:23.560Z,1009.67
2022-11-27T14:14:20.141Z,1009.71
2022-11-27T14:15:20.113Z,1009.71
2022-11-27T14:16:20.173Z,1009.69
2022-11-27T14:17:20.084Z,1009.66
2022-11-27T14:18:20.090Z,1009.62
2022-11-27T14:19:20.058Z,1009.58
2022-11-27T14:20:20.083Z,1009.54
2022-11-27T14:21:20.046Z,1009.52
2022-11-27T14:22:20.038Z,1009.47
2022-11-27T14:23:20.014Z,1009.42
2022-11-27T14:24:20.025Z,1009.39
2022-11-27T14:25:20.007Z,1009.35
2022-11-27T14:26:20.006Z,1009.28
2022-11-27T14:27:19.991Z,1009.25
2022-11-27T14:28:19.977Z,1009.21
2022-11-27T14:29:19.957Z,1009.17
2022-11-27T14:30:19.967Z,1009.14
2022-11-27T14:31:19.997Z,1009.14
2022-11-27T14:32:19.955Z,1009.12
2022-11-27T14:33:19.921Z,1009.09
2022-11-27T14:34:24.537Z,1009.08
2022-11-27T14:35:20.054Z,1009.07
2022-11-27T14:36:19.887Z,1009.01
2022-11-27T14:37:19.860Z,1009.00
2022-11-27T14:38:19.866Z,1008.97
2022-11-27T14:39:19.850Z,1008.95
2022-11-27T14:40:19.912Z,1008.90
2022-11-27T14:41:19.822Z,1008.88
2022-11-27T14:42:19.823Z,1008.84
2022-11-27T14:43:19.795Z,1008.85
2022-11-27T14:44:19.792Z,1008.82
2022-11-27T14:45:19.774Z,1008.84
2022-11-27T14:46:19.919Z,1008.81
2022-11-27T14:47:19.763Z,1008.82
2022-11-27T14:48:19.752Z,1008.83
2022-11-27T14:49:19.767Z,1008.83
2022-11-27T14:50:19.738Z,1008.79
2022-11-27T14:51:19.709Z,1008.79
2022-11-27T14:52:19.735Z,1008.80
2022-11-27T14:53:19.687Z,1008.80
2022-11-27T14:54:19.696Z,1008.78
2022-11-27T14:55:19.670Z,1008.80
2022-11-27T14:56:19.664Z,1008.81
2022-11-27T14:57:19.655Z,1008.87
2022-11-27T14:58:19.688Z,1008.92
2022-11-27T14:59:19.618Z,1008.95
2022-11-27T15:00:19.658Z,1008.97
2022-11-27T15:01:19.600Z,1009.00
2022-11-27T15:02:22.350Z,1009.02
2022-11-27T15:03:19.700Z,1009.06
2022-11-27T15:04:19.593Z,1009.09
2022-11-27T15:05:19.562Z,1009.12
2022-11-27T15:06:19.594Z,1009.13
2022-11-27T15:07:19.577Z,1009.13
2022-11-27T15:08:19.639Z,1009.15
2022-11-27T15:09:34.840Z,1009.17
2022-11-27T15:10:19.549Z,1009.16
2022-11-27T15:11:42.696Z,1009.14
2022-11-27T15:12:19.528Z,1009.08
2022-11-27T15:13:21.017Z,1009.02
2022-11-27T15:14:19.475Z,1008.95
2022-11-27T15:15:19.456Z,1008.88
2022-11-27T15:16:19.517Z,1008.84
2022-11-27T15:17:19.433Z,1008.84
2022-11-27T15:18:19.457Z,1008.81
2022-11-27T15:19:19.407Z,1008.79
2022-11-27T15:20:19.419Z,1008.80
2022-11-27T15:21:19.387Z,1008.80
2022-11-27T15:22:19.385Z,1008.75
2022-11-27T15:23:19.402Z,1008.73
2022-11-27T15:24:19.363Z,1008.73
2022-11-27T15:25:19.345Z,1008.75
2022-11-27T15:26:25.017Z,1008.74
2022-11-27T15:27:19.348Z,1008.72
2022-11-27T15:28:19.351Z,1008.73
2022-11-27T15:29:19.312Z,1008.74
2022-11-27T15:30:19.374Z,1008.74
2022-11-27T15:31:19.365Z,1008.72
2022-11-27T15:32:23.155Z,1008.70
2022-11-27T15:33:19.254Z,1008.69
2022-11-27T15:34:19.283Z,1008.68
2022-11-27T15:35:19.237Z,1008.67
2022-11-27T15:36:19.237Z,1008.64
2022-11-27T15:37:19.264Z,1008.63
2022-11-27T15:38:19.242Z,1008.60
2022-11-27T15:39:19.211Z,1008.61
2022-11-27T15:40:19.204Z,1008.62
2022-11-27T15:41:19.164Z,1008.60
2022-11-27T15:42:19.173Z,1008.59
2022-11-27T15:43:19.170Z,1008.54
2022-11-27T15:44:19.152Z,1008.53
2022-11-27T15:45:19.163Z,1008.50
2022-11-27T15:46:19.197Z,1008.50
2022-11-27T15:47:19.123Z,1008.51
2022-11-27T15:48:19.124Z,1008.53
2022-11-27T15:49:19.087Z,1008.51
2022-11-27T15:50:19.095Z,1008.52
2022-11-27T15:51:19.082Z,1008.51
2022-11-27T15:52:19.080Z,1008.49
2022-11-27T15:53:19.067Z,1008.49
2022-11-27T15:54:19.111Z,1008.50
2022-11-27T15:55:19.069Z,1008.53
2022-11-27T15:56:19.077Z,1008.57
2022-11-27T15:57:19.097Z,1008.63
2022-11-27T15:58:19.074Z,1008.67